Time;durP1;ratioP1;P1;durP2;ratioP2;P2;SDS_P1;SDS_P2;PMS_P1;PMS_P2;Temp;Humidity;BMP_temperature;BMP_pressure;BME280_temperature;BME280_humidity;BME280_pressure;Samples;Min_cycle;Max_cycle;Signal;HPM_P1;HPM_P2
2023/11/30 00:00:09;;;;;;;2.10;1.50;;;16.70;72.40;;;;;;345550;28;999;-57
2023/11/30 00:00:20;;;;;;;1.80;1.50;;;16.70;72.30;;;;;;345417;28;1107;-55
2023/11/30 00:00:30;;;;;;;2.03;1.50;;;16.70;72.30;;;;;;345508;28;932;-56
2023/11/30 00:00:41;;;;;;;2.30;1.67;;;16.70;72.30;;;;;;345520;28;995;-57
2023/11/30 00:00:52;;;;;;;2.67;1.75;;;16.70;72.40;;;;;;345485;28;1166;-57
2023/11/30 00:01:02;;;;;;;3.23;1.70;;;16.70;72.40;;;;;;345462;28;933;-58
2023/11/30 00:01:13;;;;;;;3.50;1.50;;;16.70;72.50;;;;;;345550;28;1866;-57
2023/11/30 00:01:24;;;;;;;2.80;1.50;;;16.70;72.40;;;;;;345520;28;1467;-57
2023/11/30 00:01:35;;;;;;;2.53;1.50;;;16.70;72.40;;;;;;345495;28;1138;-56
2023/11/30 00:01:45;;;;;;;2.83;1.70;;;16.60;72.40;;;;;;345486;28;1061;-57
2023/11/30 00:01:56;;;;;;;2.78;1.60;;;16.70;72.40;;;;;;345468;28;1571;-57
2023/11/30 00:02:07;;;;;;;2.75;1.55;;;16.60;72.50;;;;;;345585;28;920;-56
2023/11/30 00:02:17;;;;;;;2.10;1.40;;;16.60;72.40;;;;;;345595;28;919;-55
2023/11/30 00:02:28;;;;;;;2.33;1.50;;;16.70;72.50;;;;;;345436;28;1018;-55
2023/11/30 00:02:39;;;;;;;2.80;1.70;;;16.70;72.50;;;;;;345507;28;1050;-56
2023/11/30 00:02:50;;;;;;;3.58;1.80;;;16.70;72.50;;;;;;345560;28;805;-55
2023/11/30 00:03:00;;;;;;;3.35;1.67;;;16.70;72.50;;;;;;345566;28;1026;-57
2023/11/30 00:03:11;;;;;;;2.93;1.50;;;16.60;72.40;;;;;;345431;28;964;-56
2023/11/30 00:03:22;;;;;;;2.15;1.48;;;16.70;72.40;;;;;;345542;28;859;-56
2023/11/30 00:03:32;;;;;;;2.65;1.55;;;16.70;72.40;;;;;;345515;28;816;-56
2023/11/30 00:03:43;;;;;;;2.50;1.50;;;16.70;72.40;;;;;;345566;28;892;-55
2023/11/30 00:03:54;;;;;;;2.53;1.52;;;16.70;72.40;;;;;;345482;28;925;-57
2023/11/30 00:04:04;;;;;;;2.10;1.33;;;16.70;72.40;;;;;;345567;28;864;-56
2023/11/30 00:04:15;;;;;;;2.17;1.38;;;16.70;72.40;;;;;;345522;28;1050;-57
2023/11/30 00:04:26;;;;;;;2.90;1.50;;;16.70;72.40;;;;;;345543;28;828;-56
2023/11/30 00:04:36;;;;;;;3.28;1.63;;;16.70;72.40;;;;;;345388;28;1577;-56
2023/11/30 00:04:47;;;;;;;2.72;1.55;;;16.70;72.40;;;;;;345415;28;1078;-57
2023/11/30 00:04:58;;;;;;;2.60;1.50;;;16.70;72.30;;;;;;345438;28;1046;-56
2023/11/30 00:05:09;;;;;;;2.53;1.50;;;16.70;72.30;;;;;;345422;28;935;-56
2023/11/30 00:05:19;;;;;;;2.58;1.48;;;16.70;72.30;;;;;;345295;28;1099;-55
2023/11/30 00:05:30;;;;;;;2.67;1.60;;;16.70;72.20;;;;;;345427;28;1008;-58
2023/11/30 00:05:41;;;;;;;2.53;1.60;;;16.70;72.30;;;;;;345376;28;1407;-56
2023/11/30 00:05:51;;;;;;;2.33;1.60;;;16.70;72.40;;;;;;345302;28;963;-56
2023/11/30 00:06:02;;;;;;;2.60;1.52;;;16.60;72.30;;;;;;345442;28;845;-57
2023/11/30 00:06:13;;;;;;;2.63;1.60;;;16.60;72.50;;;;;;345382;28;987;-56
2023/11/30 00:06:24;;;;;;;2.83;1.52;;;16.60;72.70;;;;;;345322;28;1003;-55
2023/11/30 00:06:39;;;;;;;2.33;1.50;;;16.60;72.70;;;;;;345388;28;1070;-56
2023/11/30 00:06:50;;;;;;;2.67;1.50;;;16.60;72.70;;;;;;345542;28;967;-55
2023/11/30 00:07:00;;;;;;;2.80;1.43;;;16.60;72.70;;;;;;345465;28;1027;-55
2023/11/30 00:07:12;;;;;;;2.50;1.40;;;16.60;72.70;;;;;;345472;28;2370;-57
2023/11/30 00:07:23;;;;;;;2.38;1.55;;;16.70;72.60;;;;;;345504;28;1035;-55
2023/11/30 00:07:34;;;;;;;2.97;1.80;;;16.70;72.60;;;;;;345427;28;1062;-56
2023/11/30 00:07:44;;;;;;;3.38;1.70;;;16.70;72.50;;;;;;345501;28;927;-56
2023/11/30 00:07:55;;;;;;;2.90;1.53;;;16.70;72.50;;;;;;345519;28;1146;-56
2023/11/30 00:08:06;;;;;;;2.80;1.77;;;16.60;72.30;;;;;;345417;28;1107;-56
2023/11/30 00:08:16;;;;;;;2.63;1.90;;;16.60;72.50;;;;;;345557;28;864;-55
2023/11/30 00:08:27;;;;;;;4.80;1.80;;;16.60;72.60;;;;;;345514;28;881;-55
2023/11/30 00:08:38;;;;;;;5.43;2.17;;;16.60;72.70;;;;;;345466;28;983;-57
2023/11/30 00:08:49;;;;;;;6.30;2.53;;;16.60;72.70;;;;;;345589;28;1023;-58
2023/11/30 00:09:00;;;;;;;4.47;2.70;;;16.60;72.70;;;;;;345497;28;866;-55
2023/11/30 00:09:10;;;;;;;3.78;2.33;;;16.60;72.70;;;;;;345462;28;900;-57
2023/11/30 00:09:21;;;;;;;3.17;2.05;;;16.60;72.70;;;;;;345517;28;964;-57
2023/11/30 00:09:32;;;;;;;2.75;1.88;;;16.60;72.60;;;;;;345488;28;1055;-61
2023/11/30 00:09:43;;;;;;;2.93;2.00;;;16.60;72.60;;;;;;345427;28;1096;-56
2023/11/30 00:09:53;;;;;;;3.28;2.30;;;16.60;72.50;;;;;;345590;28;848;-55
2023/11/30 00:10:04;;;;;;;3.50;2.50;;;16.60;72.40;;;;;;345475;28;1910;-56
2023/11/30 00:10:15;;;;;;;3.17;2.40;;;16.60;72.40;;;;;;345424;28;1094;-57
2023/11/30 00:10:26;;;;;;;2.70;2.00;;;16.60;72.40;;;;;;345524;28;887;-55
2023/11/30 00:10:37;;;;;;;2.03;1.55;;;16.70;72.40;;;;;;345477;28;940;-56
2023/11/30 00:10:48;;;;;;;2.10;1.43;;;16.60;72.30;;;;;;345546;28;1144;-57
2023/11/30 00:10:58;;;;;;;2.20;1.40;;;16.60;72.30;;;;;;345416;28;1012;-56
2023/11/30 00:11:12;;;;;;;2.40;1.40;;;16.60;72.50;;;;;;345497;28;1008;-55
2023/11/30 00:11:22;;;;;;;2.50;1.40;;;16.60;72.50;;;;;;345497;28;1222;-56
2023/11/30 00:11:33;;;;;;;3.15;1.40;;;16.60;72.50;;;;;;345543;28;1051;-55
2023/11/30 00:11:44;;;;;;;3.05;1.40;;;16.60;72.50;;;;;;345484;28;1079;-55
2023/11/30 00:11:54;;;;;;;2.73;1.40;;;16.60;72.50;;;;;;345514;28;1038;-56
2023/11/30 00:12:05;;;;;;;3.10;1.55;;;16.60;72.40;;;;;;345528;28;987;-57
2023/11/30 00:12:16;;;;;;;3.15;1.60;;;16.60;72.40;;;;;;345509;28;1024;-57
2023/11/30 00:12:27;;;;;;;3.55;1.70;;;16.70;72.50;;;;;;345366;28;1660;-57
2023/11/30 00:12:37;;;;;;;2.70;1.63;;;16.70;72.40;;;;;;345511;28;960;-56
2023/11/30 00:12:48;;;;;;;2.60;1.70;;;16.60;72.40;;;;;;345537;28;852;-56
2023/11/30 00:12:59;;;;;;;3.35;1.67;;;16.60;72.40;;;;;;345509;28;1035;-56
2023/11/30 00:13:09;;;;;;;3.95;1.60;;;16.60;72.40;;;;;;345406;28;1087;-56
2023/11/30 00:13:20;;;;;;;3.97;1.63;;;16.60;72.40;;;;;;345526;28;1469;-56
2023/11/30 00:13:31;;;;;;;2.67;1.60;;;16.70;72.40;;;;;;345539;28;912;-55
2023/11/30 00:13:41;;;;;;;2.67;1.70;;;16.60;72.40;;;;;;345563;28;1091;-56
2023/11/30 00:13:52;;;;;;;2.45;1.70;;;16.70;72.40;;;;;;345429;28;1784;-55
2023/11/30 00:14:03;;;;;;;2.63;1.70;;;16.70;72.30;;;;;;345504;28;1547;-57
2023/11/30 00:14:14;;;;;;;2.50;1.73;;;16.70;72.30;;;;;;345489;28;1182;-57
2023/11/30 00:14:25;;;;;;;2.17;1.60;;;16.70;72.20;;;;;;345546;28;1083;-57
2023/11/30 00:14:35;;;;;;;2.20;1.50;;;16.70;72.30;;;;;;345432;28;1022;-57
2023/11/30 00:14:46;;;;;;;2.67;1.50;;;16.70;72.30;;;;;;345531;28;1054;-57
2023/11/30 00:14:57;;;;;;;3.10;1.60;;;16.70;72.20;;;;;;345462;28;1497;-56
2023/11/30 00:15:08;;;;;;;2.75;1.50;;;16.60;72.30;;;;;;345565;28;839;-59
2023/11/30 00:15:18;;;;;;;2.35;1.40;;;16.60;72.40;;;;;;345419;28;1090;-57
2023/11/30 00:15:29;;;;;;;2.20;1.40;;;16.60;72.50;;;;;;345543;28;1078;-56
2023/11/30 00:15:40;;;;;;;1.98;1.48;;;16.60;72.40;;;;;;345540;28;813;-56
2023/11/30 00:15:50;;;;;;;2.33;1.53;;;16.60;72.40;;;;;;345495;28;1761;-57
2023/11/30 00:16:01;;;;;;;2.45;1.77;;;16.60;72.40;;;;;;345418;28;1090;-56
2023/11/30 00:16:12;;;;;;;2.75;1.85;;;16.60;72.50;;;;;;345542;28;898;-55
2023/11/30 00:16:22;;;;;;;2.40;1.80;;;16.60;72.50;;;;;;345523;28;1086;-57
2023/11/30 00:16:33;;;;;;;2.63;1.73;;;16.60;72.50;;;;;;345528;28;779;-55
2023/11/30 00:16:44;;;;;;;3.00;1.80;;;16.60;72.40;;;;;;345380;28;1330;-55
2023/11/30 00:16:55;;;;;;;2.83;1.65;;;16.60;72.40;;;;;;345569;28;829;-56
2023/11/30 00:17:05;;;;;;;2.83;1.52;;;16.60;72.40;;;;;;345518;28;1613;-56
2023/11/30 00:17:16;;;;;;;2.60;1.40;;;16.60;72.30;;;;;;345542;28;1027;-56
2023/11/30 00:17:27;;;;;;;2.50;1.40;;;16.60;72.30;;;;;;345448;28;1098;-55
2023/11/30 00:17:37;;;;;;;2.40;1.40;;;16.60;72.40;;;;;;345505;28;936;-56
2023/11/30 00:17:48;;;;;;;2.30;1.50;;;16.60;72.50;;;;;;345507;28;1031;-56
2023/11/30 00:17:59;;;;;;;2.37;1.53;;;16.60;72.50;;;;;;345575;28;837;-56
2023/11/30 00:18:10;;;;;;;3.00;1.50;;;16.60;72.50;;;;;;345410;28;1280;-57
2023/11/30 00:18:20;;;;;;;3.38;1.50;;;16.60;72.40;;;;;;345501;28;1016;-55
2023/11/30 00:18:31;;;;;;;3.80;1.50;;;16.60;72.40;;;;;;345503;28;1028;-56
2023/11/30 00:18:42;;;;;;;3.10;1.40;;;16.60;72.30;;;;;;345501;28;1159;-55
2023/11/30 00:18:52;;;;;;;2.45;1.33;;;16.60;72.30;;;;;;345369;28;1249;-56
2023/11/30 00:19:03;;;;;;;2.10;1.40;;;16.60;72.40;;;;;;345532;28;892;-55
2023/11/30 00:19:14;;;;;;;2.05;1.30;;;16.60;72.40;;;;;;345555;28;988;-55
2023/11/30 00:19:24;;;;;;;2.00;1.30;;;16.60;72.50;;;;;;345506;28;948;-57
2023/11/30 00:19:35;;;;;;;1.95;1.30;;;16.60;72.50;;;;;;345430;28;1054;-56
2023/11/30 00:19:46;;;;;;;2.38;1.33;;;16.50;72.60;;;;;;345549;28;829;-56
2023/11/30 00:19:57;;;;;;;2.57;1.30;;;16.50;72.70;;;;;;345544;28;998;-55
2023/11/30 00:20:10;;;;;;;2.88;1.45;;;16.50;72.80;;;;;;345544;28;952;-56
2023/11/30 00:20:21;;;;;;;2.45;1.40;;;16.60;72.80;;;;;;345438;28;1509;-56
2023/11/30 00:20:32;;;;;;;1.97;1.30;;;16.50;72.80;;;;;;345489;28;960;-55
2023/11/30 00:20:42;;;;;;;2.00;1.23;;;16.60;72.80;;;;;;345482;28;1070;-56
2023/11/30 00:20:53;;;;;;;2.22;1.23;;;16.50;72.80;;;;;;345473;28;1142;-56
2023/11/30 00:21:04;;;;;;;2.63;1.30;;;16.60;72.70;;;;;;345442;28;920;-56
2023/11/30 00:21:15;;;;;;;2.70;1.27;;;16.60;72.60;;;;;;345462;28;1111;-56
2023/11/30 00:21:26;;;;;;;2.60;1.40;;;16.60;72.60;;;;;;345422;28;1039;-56
2023/11/30 00:21:36;;;;;;;2.80;1.48;;;16.60;72.50;;;;;;345515;28;1070;-55
2023/11/30 00:21:47;;;;;;;2.10;1.30;;;16.60;72.60;;;;;;345415;28;1150;-55
2023/11/30 00:21:58;;;;;;;2.63;1.30;;;16.60;72.60;;;;;;345468;28;1135;-56
2023/11/30 00:22:09;;;;;;;2.40;1.25;;;16.60;72.60;;;;;;345491;28;943;-56
2023/11/30 00:22:19;;;;;;;2.45;1.35;;;16.60;72.50;;;;;;345480;28;1176;-56
2023/11/30 00:22:30;;;;;;;2.43;1.40;;;16.60;72.60;;;;;;345408;28;1024;-56
2023/11/30 00:22:41;;;;;;;2.33;1.38;;;16.60;72.60;;;;;;345463;28;1166;-56
2023/11/30 00:22:52;;;;;;;1.95;1.20;;;16.60;72.60;;;;;;345457;28;1054;-55
2023/11/30 00:23:02;;;;;;;2.05;1.25;;;16.60;72.50;;;;;;345477;28;1038;-57
2023/11/30 00:23:13;;;;;;;2.00;1.27;;;16.60;72.40;;;;;;345417;28;1023;-55
2023/11/30 00:23:24;;;;;;;2.00;1.40;;;16.60;72.50;;;;;;345511;28;1058;-56
2023/11/30 00:23:35;;;;;;;2.10;1.50;;;16.60;72.40;;;;;;345420;28;1059;-56
2023/11/30 00:23:45;;;;;;;2.50;1.60;;;16.50;72.70;;;;;;345563;28;1015;-55
2023/11/30 00:23:56;;;;;;;2.73;1.60;;;16.50;72.70;;;;;;345440;28;1081;-56
2023/11/30 00:24:07;;;;;;;3.03;1.50;;;16.40;72.70;;;;;;345542;28;843;-55
2023/11/30 00:24:18;;;;;;;3.00;1.70;;;16.30;73.00;;;;;;345507;28;1042;-56
2023/11/30 00:24:28;;;;;;;3.35;1.90;;;16.30;73.10;;;;;;345499;28;1027;-57
2023/11/30 00:24:39;;;;;;;3.58;1.90;;;16.30;73.30;;;;;;345430;28;902;-55
2023/11/30 00:24:50;;;;;;;3.65;1.80;;;16.20;73.40;;;;;;345510;28;959;-55
2023/11/30 00:25:00;;;;;;;3.17;1.60;;;16.30;73.50;;;;;;345447;28;1018;-55
2023/11/30 00:25:11;;;;;;;2.65;1.55;;;16.30;73.50;;;;;;345489;28;1007;-57
2023/11/30 00:25:22;;;;;;;1.95;1.30;;;16.30;73.50;;;;;;345548;28;1029;-56
2023/11/30 00:25:33;;;;;;;2.07;1.20;;;16.30;73.40;;;;;;345394;28;1027;-57
2023/11/30 00:25:44;;;;;;;2.00;1.25;;;16.30;73.30;;;;;;345498;28;1941;-56
2023/11/30 00:25:54;;;;;;;2.53;1.30;;;16.40;73.30;;;;;;345527;28;1111;-55
2023/11/30 00:26:05;;;;;;;2.50;1.40;;;16.40;73.10;;;;;;345385;28;1040;-56
2023/11/30 00:26:16;;;;;;;2.28;1.30;;;16.40;73.10;;;;;;345521;28;927;-56
2023/11/30 00:26:27;;;;;;;1.80;1.20;;;16.40;73.00;;;;;;345489;28;1154;-56
2023/11/30 00:26:38;;;;;;;2.00;1.20;;;16.40;72.90;;;;;;345462;28;845;-57
2023/11/30 00:26:49;;;;;;;1.92;1.27;;;16.50;72.80;;;;;;345483;28;1019;-56
2023/11/30 00:26:59;;;;;;;1.87;1.20;;;16.50;72.80;;;;;;345472;28;1091;-56
2023/11/30 00:27:10;;;;;;;1.75;1.10;;;16.40;72.70;;;;;;345451;28;998;-57
2023/11/30 00:27:21;;;;;;;2.15;1.20;;;16.50;72.70;;;;;;345562;28;968;-56
2023/11/30 00:27:31;;;;;;;2.30;1.10;;;16.50;72.60;;;;;;345476;28;1139;-56
2023/11/30 00:27:42;;;;;;;1.77;1.03;;;16.50;72.60;;;;;;345555;28;873;-55
2023/11/30 00:27:53;;;;;;;1.73;0.98;;;16.50;72.60;;;;;;345403;28;1139;-56
2023/11/30 00:28:04;;;;;;;1.88;1.15;;;16.50;72.70;;;;;;345449;28;1562;-56
2023/11/30 00:28:14;;;;;;;2.15;1.23;;;16.50;72.60;;;;;;345539;28;790;-55
2023/11/30 00:28:25;;;;;;;2.57;1.30;;;16.50;72.60;;;;;;345413;28;968;-56
2023/11/30 00:28:36;;;;;;;2.33;1.20;;;16.40;72.70;;;;;;345519;28;1019;-56
2023/11/30 00:28:46;;;;;;;3.30;1.10;;;16.50;72.70;;;;;;345512;28;1008;-58
2023/11/30 00:28:57;;;;;;;2.80;1.10;;;16.40;72.80;;;;;;345474;28;1095;-55
2023/11/30 00:29:08;;;;;;;3.53;1.20;;;16.40;72.70;;;;;;345468;28;1069;-56
2023/11/30 00:29:18;;;;;;;2.85;1.17;;;16.40;72.70;;;;;;345449;28;1383;-56
2023/11/30 00:29:29;;;;;;;3.00;1.27;;;16.50;72.70;;;;;;345506;28;1084;-57
2023/11/30 00:29:40;;;;;;;2.30;1.35;;;16.50;72.60;;;;;;345423;28;952;-57
2023/11/30 00:29:50;;;;;;;2.43;1.50;;;16.50;72.60;;;;;;345507;28;1860;-57
2023/11/30 00:30:01;;;;;;;3.10;1.55;;;16.40;72.60;;;;;;345364;28;1914;-57
2023/11/30 00:30:12;;;;;;;3.00;1.40;;;16.50;72.60;;;;;;345460;28;957;-56
2023/11/30 00:30:23;;;;;;;3.72;1.40;;;16.50;72.60;;;;;;345500;28;1004;-56
2023/11/30 00:30:34;;;;;;;3.92;1.45;;;16.50;72.50;;;;;;345476;28;1193;-56
2023/11/30 00:30:44;;;;;;;4.00;1.70;;;16.50;72.50;;;;;;345533;28;856;-55
2023/11/30 00:30:55;;;;;;;3.10;1.98;;;16.50;72.60;;;;;;345426;28;1007;-56
2023/11/30 00:31:06;;;;;;;2.92;2.22;;;16.50;72.60;;;;;;345540;28;1027;-55
2023/11/30 00:31:17;;;;;;;3.30;2.30;;;16.40;72.50;;;;;;345516;28;1034;-57
2023/11/30 00:31:27;;;;;;;4.00;2.35;;;16.50;72.50;;;;;;345494;28;1107;-55
2023/11/30 00:31:38;;;;;;;4.43;2.43;;;16.50;72.50;;;;;;345455;28;868;-56
2023/11/30 00:31:49;;;;;;;4.50;2.47;;;16.50;72.50;;;;;;345605;28;1423;-55
2023/11/30 00:31:59;;;;;;;3.90;2.10;;;16.50;72.40;;;;;;345776;28;1031;-58
2023/11/30 00:32:10;;;;;;;3.80;1.90;;;16.50;72.50;;;;;;345766;28;1106;-56
2023/11/30 00:32:21;;;;;;;3.38;1.65;;;16.50;72.60;;;;;;345749;28;1107;-55
2023/11/30 00:32:31;;;;;;;2.92;1.60;;;16.50;72.60;;;;;;345740;28;1027;-56
2023/11/30 00:32:42;;;;;;;2.40;1.35;;;16.50;72.60;;;;;;345784;28;1795;-56
2023/11/30 00:32:53;;;;;;;2.43;1.37;;;16.50;72.60;;;;;;345704;28;1503;-57
2023/11/30 00:33:04;;;;;;;2.45;1.38;;;16.50;72.50;;;;;;345695;28;1018;-57
2023/11/30 00:33:15;;;;;;;1.88;1.30;;;16.50;72.50;;;;;;345809;28;999;-55
2023/11/30 00:33:25;;;;;;;2.20;1.35;;;16.60;72.50;;;;;;345733;28;1283;-56
2023/11/30 00:33:36;;;;;;;2.45;1.38;;;16.60;72.50;;;;;;345714;28;1083;-56
2023/11/30 00:33:47;;;;;;;2.65;1.33;;;16.60;72.40;;;;;;345665;28;984;-57
2023/11/30 00:33:57;;;;;;;2.43;1.30;;;16.50;72.40;;;;;;345769;28;1287;-56
2023/11/30 00:34:08;;;;;;;2.22;1.15;;;16.60;72.40;;;;;;345766;28;976;-57
2023/11/30 00:34:19;;;;;;;2.20;1.10;;;16.60;72.50;;;;;;345767;28;1016;-57
2023/11/30 00:34:29;;;;;;;2.53;1.30;;;16.50;72.50;;;;;;345670;28;1172;-56
2023/11/30 00:34:40;;;;;;;3.33;1.48;;;16.50;72.50;;;;;;345733;28;1143;-58
2023/11/30 00:34:51;;;;;;;3.33;1.50;;;16.50;72.60;;;;;;345730;28;1124;-56
2023/11/30 00:35:02;;;;;;;3.23;1.50;;;16.50;72.60;;;;;;345829;28;1766;-56
2023/11/30 00:35:12;;;;;;;3.00;1.60;;;16.50;72.60;;;;;;345627;28;1155;-56
2023/11/30 00:35:23;;;;;;;3.13;1.80;;;16.50;72.60;;;;;;345769;28;996;-55
2023/11/30 00:35:34;;;;;;;2.97;1.83;;;16.50;72.60;;;;;;345692;28;1492;-58
2023/11/30 00:35:44;;;;;;;2.95;1.85;;;16.60;72.60;;;;;;345801;28;818;-56
2023/11/30 00:35:55;;;;;;;3.07;1.73;;;16.50;72.60;;;;;;345664;28;1070;-56
2023/11/30 00:36:09;;;;;;;3.00;1.60;;;16.60;72.50;;;;;;345817;28;1007;-57
2023/11/30 00:36:20;;;;;;;3.63;1.60;;;16.50;72.40;;;;;;345653;28;1003;-57
2023/11/30 00:36:30;;;;;;;3.58;1.70;;;16.60;72.50;;;;;;345809;28;990;-55
2023/11/30 00:36:41;;;;;;;3.43;1.60;;;16.50;72.50;;;;;;345664;28;1036;-56
2023/11/30 00:36:52;;;;;;;3.58;1.48;;;16.50;72.50;;;;;;345827;28;883;-57
2023/11/30 00:37:03;;;;;;;3.65;1.50;;;16.50;72.40;;;;;;345810;28;869;-56
2023/11/30 00:37:13;;;;;;;3.63;1.50;;;16.50;72.40;;;;;;345611;28;1597;-56
2023/11/30 00:37:24;;;;;;;3.05;1.60;;;16.50;72.50;;;;;;345681;28;1128;-56
2023/11/30 00:37:35;;;;;;;2.50;1.50;;;16.50;72.60;;;;;;345696;28;880;-55
2023/11/30 00:37:45;;;;;;;2.05;1.45;;;16.50;72.60;;;;;;345721;28;1434;-55
2023/11/30 00:37:56;;;;;;;2.33;1.40;;;16.50;72.60;;;;;;345769;28;1063;-56
2023/11/30 00:38:07;;;;;;;2.53;1.40;;;16.50;72.60;;;;;;345668;28;1773;-56
2023/11/30 00:38:18;;;;;;;3.63;1.40;;;16.50;72.60;;;;;;345795;28;852;-56
2023/11/30 00:38:28;;;;;;;3.33;1.35;;;16.50;72.70;;;;;;345654;28;964;-56
2023/11/30 00:38:39;;;;;;;2.97;1.30;;;16.50;72.60;;;;;;345717;28;1850;-57
2023/11/30 00:38:50;;;;;;;1.70;1.20;;;16.40;72.60;;;;;;345740;28;1253;-57
2023/11/30 00:39:00;;;;;;;1.60;1.10;;;16.40;72.70;;;;;;345693;28;1006;-56
2023/11/30 00:39:11;;;;;;;1.70;1.10;;;16.40;72.80;;;;;;345744;28;1083;-56
2023/11/30 00:39:22;;;;;;;1.70;1.10;;;16.40;72.80;;;;;;345779;28;861;-56
2023/11/30 00:39:33;;;;;;;2.00;1.10;;;16.50;72.80;;;;;;345673;28;991;-57
2023/11/30 00:39:44;;;;;;;2.88;1.23;;;16.50;72.70;;;;;;345815;28;924;-56
2023/11/30 00:39:55;;;;;;;3.47;1.38;;;16.50;72.70;;;;;;345647;28;971;-57
2023/11/30 00:40:06;;;;;;;3.47;1.47;;;16.50;72.70;;;;;;345719;28;1070;-56
2023/11/30 00:40:17;;;;;;;2.33;1.50;;;16.50;72.60;;;;;;345655;28;1103;-57
2023/11/30 00:40:28;;;;;;;3.22;1.55;;;16.50;72.60;;;;;;345775;28;973;-56
2023/11/30 00:40:39;;;;;;;3.45;1.50;;;16.50;72.60;;;;;;345760;28;1004;-57
2023/11/30 00:40:49;;;;;;;3.10;1.50;;;16.50;72.60;;;;;;345713;28;1017;-57
2023/11/30 00:41:00;;;;;;;2.50;1.50;;;16.60;72.50;;;;;;345768;28;976;-57
2023/11/30 00:41:15;;;;;;;2.50;1.50;;;16.50;72.40;;;;;;345741;28;1091;-57
2023/11/30 00:41:26;;;;;;;2.30;1.17;;;16.50;72.50;;;;;;345692;28;902;-56
2023/11/30 00:41:37;;;;;;;2.25;1.15;;;16.40;72.60;;;;;;345769;28;968;-57
2023/11/30 00:41:48;;;;;;;2.35;1.30;;;16.40;72.70;;;;;;345766;28;857;-57
2023/11/30 00:41:59;;;;;;;3.53;1.45;;;16.40;72.80;;;;;;345660;28;1138;-55
2023/11/30 00:42:09;;;;;;;3.95;1.63;;;16.40;72.90;;;;;;345715;28;1259;-57
2023/11/30 00:42:21;;;;;;;4.67;1.77;;;16.40;72.80;;;;;;345698;28;1574;-56
2023/11/30 00:42:31;;;;;;;3.15;1.50;;;16.40;72.70;;;;;;345663;28;1035;-57
2023/11/30 00:42:42;;;;;;;2.92;1.48;;;16.40;72.80;;;;;;345769;28;1880;-57
2023/11/30 00:42:53;;;;;;;2.43;1.30;;;16.40;72.80;;;;;;345767;28;888;-55
2023/11/30 00:43:04;;;;;;;2.25;1.40;;;16.40;72.90;;;;;;345638;28;1254;-55
2023/11/30 00:43:14;;;;;;;1.80;1.40;;;16.40;72.80;;;;;;345797;28;860;-56
2023/11/30 00:43:25;;;;;;;1.70;1.30;;;16.40;72.80;;;;;;345754;28;991;-55
2023/11/30 00:43:36;;;;;;;1.55;1.10;;;16.50;72.70;;;;;;345671;28;866;-56
2023/11/30 00:43:47;;;;;;;1.87;1.27;;;16.50;72.60;;;;;;345742;28;1017;-55
2023/11/30 00:43:57;;;;;;;2.53;1.40;;;16.50;72.50;;;;;;345773;28;1019;-56
2023/11/30 00:44:08;;;;;;;3.30;1.50;;;16.50;72.50;;;;;;345687;28;1759;-57
2023/11/30 00:44:21;;;;;;;3.05;1.25;;;16.50;72.50;;;;;;345759;28;1166;-55
2023/11/30 00:44:31;;;;;;;2.90;1.25;;;16.50;72.50;;;;;;345747;28;1028;-55
2023/11/30 00:44:42;;;;;;;2.05;1.20;;;16.50;72.50;;;;;;345683;28;1145;-56
2023/11/30 00:44:53;;;;;;;2.60;1.38;;;16.50;72.50;;;;;;345788;28;857;-56
2023/11/30 00:45:04;;;;;;;2.50;1.40;;;16.50;72.40;;;;;;345733;28;1063;-57
2023/11/30 00:45:15;;;;;;;2.55;1.40;;;16.50;72.40;;;;;;345650;28;1254;-56
2023/11/30 00:45:25;;;;;;;1.80;1.30;;;16.60;72.40;;;;;;345809;28;1071;-56
2023/11/30 00:45:36;;;;;;;1.85;1.40;;;16.50;72.30;;;;;;345703;28;1003;-56
2023/11/30 00:45:47;;;;;;;2.00;1.30;;;16.60;72.30;;;;;;345626;28;1096;-55
2023/11/30 00:45:58;;;;;;;2.20;1.30;;;16.60;72.30;;;;;;345709;28;1439;-56
2023/11/30 00:46:13;;;;;;;2.20;1.17;;;16.60;72.30;;;;;;345711;28;1047;-56
2023/11/30 00:46:24;;;;;;;2.50;1.38;;;16.60;72.20;;;;;;345747;28;961;-55
2023/11/30 00:46:35;;;;;;;2.78;1.60;;;16.60;72.20;;;;;;345627;28;1030;-56
2023/11/30 00:46:45;;;;;;;2.80;1.63;;;16.60;72.20;;;;;;345755;28;968;-56
2023/11/30 00:46:56;;;;;;;2.53;1.50;;;16.60;72.10;;;;;;345647;28;1138;-55
2023/11/30 00:47:07;;;;;;;2.63;1.40;;;16.60;72.10;;;;;;345762;28;888;-56
2023/11/30 00:47:17;;;;;;;2.30;1.33;;;16.60;72.00;;;;;;345735;28;971;-57
2023/11/30 00:47:28;;;;;;;2.92;1.50;;;16.60;72.00;;;;;;345798;28;837;-55
2023/11/30 00:47:39;;;;;;;3.20;1.60;;;16.70;72.00;;;;;;345637;28;936;-56
2023/11/30 00:47:49;;;;;;;3.17;1.60;;;16.60;72.00;;;;;;345761;28;821;-56
2023/11/30 00:48:00;;;;;;;2.55;1.50;;;16.60;72.00;;;;;;345712;28;967;-55
2023/11/30 00:48:11;;;;;;;2.60;1.60;;;16.60;72.00;;;;;;345767;28;940;-56
2023/11/30 00:48:22;;;;;;;2.78;1.70;;;16.60;72.00;;;;;;345691;28;876;-56
2023/11/30 00:48:32;;;;;;;3.15;1.83;;;16.60;72.00;;;;;;345701;28;1108;-57
2023/11/30 00:48:45;;;;;;;3.30;1.90;;;16.60;72.00;;;;;;345636;28;1038;-55
2023/11/30 00:48:55;;;;;;;3.10;1.75;;;16.60;72.00;;;;;;345687;28;1107;-56
2023/11/30 00:49:06;;;;;;;3.03;1.88;;;16.60;72.00;;;;;;345716;28;1949;-56
2023/11/30 00:49:17;;;;;;;3.47;2.00;;;16.60;71.90;;;;;;345726;28;1253;-57
2023/11/30 00:49:27;;;;;;;3.60;2.10;;;16.60;71.90;;;;;;345638;28;1005;-55
2023/11/30 00:49:38;;;;;;;3.58;1.90;;;16.70;71.90;;;;;;345728;28;1087;-57
2023/11/30 00:49:49;;;;;;;3.08;1.70;;;16.70;71.90;;;;;;345630;28;1095;-55
2023/11/30 00:49:59;;;;;;;2.80;1.50;;;16.70;71.80;;;;;;345705;28;1991;-55
2023/11/30 00:50:10;;;;;;;2.50;1.30;;;16.70;71.80;;;;;;345645;28;1883;-56
2023/11/30 00:50:21;;;;;;;2.92;1.20;;;16.70;71.70;;;;;;345735;28;1100;-57
2023/11/30 00:50:31;;;;;;;3.42;1.40;;;16.70;71.70;;;;;;345682;28;996;-57
2023/11/30 00:50:42;;;;;;;3.70;1.53;;;16.70;71.70;;;;;;345749;28;1155;-56
2023/11/30 00:50:53;;;;;;;3.47;1.60;;;16.70;71.70;;;;;;345777;28;829;-54
2023/11/30 00:51:04;;;;;;;3.20;1.63;;;16.70;71.70;;;;;;345686;28;900;-56
2023/11/30 00:51:14;;;;;;;3.65;2.03;;;16.70;71.70;;;;;;345794;28;876;-56
2023/11/30 00:51:28;;;;;;;3.80;2.40;;;16.70;71.70;;;;;;345763;28;1012;-57
2023/11/30 00:51:39;;;;;;;4.30;2.53;;;16.70;71.70;;;;;;345701;28;1167;-56
2023/11/30 00:51:50;;;;;;;4.03;2.30;;;16.70;71.70;;;;;;345747;28;981;-56
2023/11/30 00:52:00;;;;;;;3.30;1.98;;;16.70;71.60;;;;;;345674;28;1103;-57
2023/11/30 00:52:11;;;;;;;3.60;2.03;;;16.70;71.60;;;;;;345730;28;1087;-57
2023/11/30 00:52:22;;;;;;;4.05;2.10;;;16.70;71.60;;;;;;345724;28;1027;-56
2023/11/30 00:52:33;;;;;;;3.53;1.77;;;16.70;71.50;;;;;;345698;28;1027;-58
2023/11/30 00:52:43;;;;;;;2.97;1.65;;;16.70;71.50;;;;;;345692;28;1158;-56
2023/11/30 00:52:54;;;;;;;2.88;1.52;;;16.70;71.60;;;;;;345675;28;901;-56
2023/11/30 00:53:05;;;;;;;3.13;1.70;;;16.70;71.70;;;;;;345745;28;1143;-56
2023/11/30 00:53:15;;;;;;;3.00;1.60;;;16.70;71.60;;;;;;345702;28;1518;-56
2023/11/30 00:53:26;;;;;;;2.55;1.40;;;16.70;71.60;;;;;;345759;28;987;-56
2023/11/30 00:53:38;;;;;;;2.60;1.63;;;16.60;71.60;;;;;;345732;28;884;-56
2023/11/30 00:53:48;;;;;;;2.92;1.88;;;16.70;71.70;;;;;;345623;28;1881;-56
2023/11/30 00:53:59;;;;;;;3.63;2.42;;;16.60;71.70;;;;;;345726;28;964;-56
2023/11/30 00:54:10;;;;;;;3.08;2.25;;;16.60;71.70;;;;;;345712;28;1470;-56
2023/11/30 00:54:20;;;;;;;2.90;2.00;;;16.60;71.70;;;;;;345759;28;1918;-56
2023/11/30 00:54:31;;;;;;;3.03;1.63;;;16.70;71.80;;;;;;345693;28;1225;-57
2023/11/30 00:54:42;;;;;;;4.18;1.83;;;16.60;71.80;;;;;;345671;28;1361;-55
2023/11/30 00:54:53;;;;;;;4.45;2.05;;;16.70;71.80;;;;;;345719;28;1493;-56
2023/11/30 00:55:04;;;;;;;4.90;2.30;;;16.60;71.80;;;;;;345684;28;1445;-55
2023/11/30 00:55:14;;;;;;;4.47;2.13;;;16.60;71.70;;;;;;345653;28;1009;-55
2023/11/30 00:55:25;;;;;;;3.85;2.00;;;16.70;71.70;;;;;;345725;28;987;-57
2023/11/30 00:55:36;;;;;;;3.47;2.08;;;16.70;71.60;;;;;;345610;28;1099;-57
2023/11/30 00:55:46;;;;;;;2.95;1.83;;;16.70;71.60;;;;;;345723;28;952;-56
2023/11/30 00:55:57;;;;;;;2.83;1.80;;;16.70;71.60;;;;;;345726;28;983;-56
2023/11/30 00:56:11;;;;;;;2.55;1.70;;;16.70;71.60;;;;;;345673;28;1074;-58
2023/11/30 00:56:21;;;;;;;2.75;1.67;;;16.70;71.60;;;;;;345721;28;944;-56
2023/11/30 00:56:32;;;;;;;2.92;1.63;;;16.70;71.60;;;;;;345721;28;1015;-56
2023/11/30 00:56:43;;;;;;;3.37;1.70;;;16.70;71.70;;;;;;345693;28;1000;-56
2023/11/30 00:56:53;;;;;;;3.95;1.60;;;16.60;71.70;;;;;;345760;28;1039;-56
2023/11/30 00:57:04;;;;;;;4.13;1.60;;;16.70;71.70;;;;;;345729;28;2621;-58
2023/11/30 00:57:15;;;;;;;3.53;1.53;;;16.70;71.70;;;;;;345690;28;1030;-56
2023/11/30 00:57:26;;;;;;;2.88;1.60;;;16.70;71.70;;;;;;345743;28;1079;-55
2023/11/30 00:57:36;;;;;;;3.05;1.60;;;16.70;71.70;;;;;;345772;28;853;-55
2023/11/30 00:57:47;;;;;;;3.28;1.60;;;16.70;71.60;;;;;;345668;28;1403;-56
2023/11/30 00:57:57;;;;;;;3.60;1.70;;;16.70;71.60;;;;;;345760;28;1015;-56
2023/11/30 00:58:08;;;;;;;3.35;1.80;;;16.70;71.50;;;;;;345732;28;996;-55
2023/11/30 00:58:19;;;;;;;3.55;1.80;;;16.70;71.60;;;;;;345674;28;999;-55